Time;durP1;ratioP1;P1;durP2;ratioP2;P2;SDS_P1;SDS_P2;PMS_P1;PMS_P2;Temp;Humidity;BMP_temperature;BMP_pressure;BME280_temperature;BME280_humidity;BME280_pressure;Samples;Min_cycle;Max_cycle;Signal;HPM_P1;HPM_P2
2024/01/12 00:02:28;;;;;;;26.92;24.67;;;;;;;;;;5120001;27;20029;-87
2024/01/12 00:05:12;;;;;;;30.00;26.75;;;;;;;;;;5134390;27;20392;-88
2024/01/12 00:07:57;;;;;;;27.73;25.23;;;;;;;;;;5119886;27;20443;-89
2024/01/12 00:10:41;;;;;;;27.50;24.90;;;;;;;;;;5120391;27;20489;-89
2024/01/12 00:13:25;;;;;;;26.30;23.88;;;;;;;;;;5119981;27;20495;-89
2024/01/12 00:16:09;;;;;;;28.95;26.52;;;;;;;;;;5121581;27;20037;-88
2024/01/12 00:19:28;;;;;;;27.33;24.90;;;;;;;;;;5121606;27;20091;-89
2024/01/12 00:22:12;;;;;;;28.17;25.52;;;;;;;;;;5115540;27;20039;-88
2024/01/12 00:24:56;;;;;;;29.00;26.42;;;;;;;;;;5118266;27;20045;-88
2024/01/12 00:27:40;;;;;;;31.17;28.52;;;;;;;;;;5117966;27;20042;-88
2024/01/12 00:30:24;;;;;;;32.13;29.08;;;;;;;;;;5116514;27;20124;-89
2024/01/12 00:33:08;;;;;;;34.60;31.73;;;;;;;;;;5115812;27;20042;-86
2024/01/12 00:35:52;;;;;;;34.40;31.67;;;;;;;;;;5131087;27;20546;-86
2024/01/12 00:38:36;;;;;;;32.85;30.17;;;;;;;;;;5117223;27;20380;-87
2024/01/12 00:41:20;;;;;;;35.00;31.45;;;;;;;;;;5117558;27;20781;-88
2024/01/12 00:44:05;;;;;;;32.72;29.98;;;;;;;;;;5117815;27;20126;-89
2024/01/12 00:46:50;;;;;;;32.05;29.25;;;;;;;;;;5115943;27;20235;-87
2024/01/12 00:49:35;;;;;;;31.15;28.08;;;;;;;;;;5132076;27;20045;-86
2024/01/12 00:52:18;;;;;;;31.60;28.63;;;;;;;;;;5132838;27;20030;-88
2024/01/12 00:55:03;;;;;;;33.45;30.75;;;;;;;;;;5122075;27;20031;-89
2024/01/12 00:57:47;;;;;;;32.40;29.77;;;;;;;;;;5117869;27;20450;-89
2024/01/12 01:00:31;;;;;;;31.48;29.42;;;;;;;;;;5118756;27;21467;-89
2024/01/12 01:03:16;;;;;;;26.98;24.95;;;;;;;;;;5118896;27;20038;-88
2024/01/12 01:06:00;;;;;;;32.92;30.48;;;;;;;;;;5117256;27;20046;-88
2024/01/12 01:08:45;;;;;;;32.08;29.65;;;;;;;;;;5117503;27;20042;-88
2024/01/12 01:11:30;;;;;;;32.67;30.08;;;;;;;;;;5116735;27;20072;-88
2024/01/12 01:14:14;;;;;;;31.60;28.90;;;;;;;;;;5118351;27;20058;-88
2024/01/12 01:16:57;;;;;;;30.23;28.20;;;;;;;;;;5118129;27;20039;-87
2024/01/12 01:19:41;;;;;;;31.33;28.48;;;;;;;;;;5118326;27;20076;-87
2024/01/12 01:22:25;;;;;;;30.83;28.40;;;;;;;;;;5117608;27;20030;-88
2024/01/12 01:25:12;;;;;;;32.65;30.02;;;;;;;;;;5117772;27;20034;-86
2024/01/12 01:27:57;;;;;;;32.17;29.92;;;;;;;;;;5117606;27;20050;-89
2024/01/12 01:30:41;;;;;;;35.22;33.05;;;;;;;;;;5117919;27;20115;-86
2024/01/12 01:33:24;;;;;;;31.08;28.98;;;;;;;;;;5133682;27;20454;-86
2024/01/12 01:36:08;;;;;;;31.38;28.38;;;;;;;;;;5133818;27;20026;-89
2024/01/12 01:38:52;;;;;;;30.38;28.17;;;;;;;;;;5118730;27;20084;-86
2024/01/12 01:41:36;;;;;;;32.20;29.55;;;;;;;;;;5133358;27;20046;-89
2024/01/12 01:44:20;;;;;;;30.13;27.83;;;;;;;;;;5117939;27;20046;-88
2024/01/12 01:47:04;;;;;;;31.58;29.42;;;;;;;;;;5117420;27;20034;-87
2024/01/12 01:49:48;;;;;;;31.88;29.90;;;;;;;;;;5117901;27;20087;-88
2024/01/12 01:52:32;;;;;;;33.17;30.77;;;;;;;;;;5117688;27;20127;-89
2024/01/12 01:55:16;;;;;;;31.98;29.60;;;;;;;;;;5117867;27;20538;-92
2024/01/12 01:58:02;;;;;;;35.92;32.85;;;;;;;;;;5117100;27;20068;-88
2024/01/12 02:00:47;;;;;;;34.25;31.88;;;;;;;;;;5117363;27;20030;-90
2024/01/12 02:03:31;;;;;;;33.17;30.92;;;;;;;;;;5130703;27;20041;-86
2024/01/12 02:06:16;;;;;;;36.08;33.13;;;;;;;;;;5117849;27;20123;-90
2024/01/12 02:09:00;;;;;;;32.67;30.60;;;;;;;;;;5117193;27;20404;-86
2024/01/12 02:11:44;;;;;;;32.30;30.20;;;;;;;;;;5117531;27;20066;-90
2024/01/12 02:14:28;;;;;;;32.65;29.88;;;;;;;;;;5133178;27;20526;-87
2024/01/12 02:17:12;;;;;;;33.90;30.83;;;;;;;;;;5116417;27;20050;-86
2024/01/12 02:19:59;;;;;;;30.58;28.55;;;;;;;;;;5116797;27;20066;-87
2024/01/12 02:22:43;;;;;;;30.58;28.17;;;;;;;;;;5133362;27;20041;-87
2024/01/12 02:25:27;;;;;;;30.27;28.38;;;;;;;;;;5133711;27;20038;-87
2024/01/12 02:28:12;;;;;;;31.42;29.15;;;;;;;;;;5114342;27;20143;-87
2024/01/12 02:30:56;;;;;;;32.00;29.75;;;;;;;;;;5132756;27;20088;-86
2024/01/12 02:33:40;;;;;;;31.50;29.23;;;;;;;;;;5116779;28;20064;-88
2024/01/12 02:36:28;;;;;;;34.40;31.35;;;;;;;;;;5116619;28;20034;-86
2024/01/12 02:39:12;;;;;;;32.63;30.17;;;;;;;;;;5116482;28;20038;-88
2024/01/12 02:41:59;;;;;;;35.35;32.58;;;;;;;;;;5090058;28;20451;-89
2024/01/12 02:44:43;;;;;;;31.33;28.50;;;;;;;;;;5089190;28;20093;-88
2024/01/12 02:47:27;;;;;;;30.70;28.50;;;;;;;;;;5089424;28;20082;-88
2024/01/12 02:50:11;;;;;;;32.33;30.25;;;;;;;;;;5090416;28;20042;-89
2024/01/12 02:52:55;;;;;;;30.98;28.05;;;;;;;;;;5091152;28;20078;-86
2024/01/12 02:55:42;;;;;;;31.05;28.70;;;;;;;;;;5089376;28;20502;-88
2024/01/12 02:58:26;;;;;;;33.92;30.75;;;;;;;;;;5089789;28;20035;-87
2024/01/12 03:01:10;;;;;;;32.50;29.70;;;;;;;;;;5090118;28;20051;-88
2024/01/12 03:03:54;;;;;;;31.75;29.45;;;;;;;;;;5088897;28;20105;-87
2024/01/12 03:06:38;;;;;;;28.85;26.45;;;;;;;;;;5095278;28;20043;-88
2024/01/12 03:09:22;;;;;;;32.95;30.63;;;;;;;;;;5091956;28;20090;-87
2024/01/12 03:12:06;;;;;;;29.33;27.38;;;;;;;;;;5092800;28;20031;-87
2024/01/12 03:14:50;;;;;;;28.98;24.98;;;;;;;;;;5093046;28;20085;-89
2024/01/12 03:17:34;;;;;;;26.45;23.95;;;;;;;;;;5092808;28;20169;-88
2024/01/12 03:20:17;;;;;;;27.27;24.80;;;;;;;;;;5095142;28;20136;-86
2024/01/12 03:23:01;;;;;;;25.33;22.70;;;;;;;;;;5095652;28;20055;-87
2024/01/12 03:25:48;;;;;;;22.85;21.05;;;;;;;;;;5092726;28;20124;-88
2024/01/12 03:28:32;;;;;;;27.70;23.75;;;;;;;;;;5091276;28;20460;-88
2024/01/12 03:31:18;;;;;;;23.02;20.83;;;;;;;;;;5094037;28;20035;-88
2024/01/12 03:34:02;;;;;;;22.90;20.65;;;;;;;;;;5093670;28;20039;-88
2024/01/12 03:36:46;;;;;;;23.52;21.50;;;;;;;;;;5090047;28;20494;-88
2024/01/12 03:39:30;;;;;;;22.52;20.73;;;;;;;;;;5095657;28;20119;-86
2024/01/12 03:42:14;;;;;;;22.92;20.92;;;;;;;;;;5103874;28;20042;-86
2024/01/12 03:44:58;;;;;;;23.70;21.52;;;;;;;;;;5093141;28;20401;-87
2024/01/12 03:47:42;;;;;;;23.70;21.63;;;;;;;;;;5087214;28;20393;-88
2024/01/12 03:50:26;;;;;;;22.08;19.95;;;;;;;;;;5086842;28;20088;-88
2024/01/12 03:53:10;;;;;;;22.30;19.70;;;;;;;;;;5086806;28;20500;-87
2024/01/12 03:55:54;;;;;;;24.73;21.30;;;;;;;;;;5089603;28;20370;-87
2024/01/12 03:58:38;;;;;;;25.15;22.75;;;;;;;;;;5093095;28;20397;-87
2024/01/12 04:01:23;;;;;;;24.83;22.98;;;;;;;;;;5090882;28;20038;-87
2024/01/12 04:04:07;;;;;;;23.33;21.35;;;;;;;;;;5088559;28;20393;-87
2024/01/12 04:06:51;;;;;;;23.20;21.15;;;;;;;;;;5091791;28;20093;-87
2024/01/12 04:09:34;;;;;;;23.23;20.85;;;;;;;;;;5083822;28;20116;-87
2024/01/12 04:12:19;;;;;;;23.08;21.23;;;;;;;;;;5087119;28;20503;-87
2024/01/12 04:15:03;;;;;;;22.77;20.40;;;;;;;;;;5089580;28;20081;-86
2024/01/12 04:17:47;;;;;;;22.75;21.25;;;;;;;;;;5096835;28;20035;-87
2024/01/12 04:20:31;;;;;;;23.95;22.35;;;;;;;;;;5090915;28;20085;-87
2024/01/12 04:23:15;;;;;;;24.73;22.95;;;;;;;;;;5087887;28;20086;-86
2024/01/12 04:25:59;;;;;;;23.58;22.05;;;;;;;;;;5085236;28;20058;-86
2024/01/12 04:28:43;;;;;;;24.83;22.98;;;;;;;;;;5090020;28;20148;-88
2024/01/12 04:31:27;;;;;;;25.10;22.92;;;;;;;;;;5100600;28;20034;-89
2024/01/12 04:34:20;;;;;;;25.00;22.90;;;;;;;;;;5085147;28;20554;-88
2024/01/12 04:37:07;;;;;;;24.33;22.10;;;;;;;;;;5105649;28;20030;-88
2024/01/12 04:39:51;;;;;;;25.60;23.17;;;;;;;;;;5085181;28;20047;-88
2024/01/12 04:42:35;;;;;;;24.10;21.83;;;;;;;;;;5094242;28;20118;-87
2024/01/12 04:45:19;;;;;;;23.75;20.90;;;;;;;;;;5088194;28;20050;-87
2024/01/12 04:48:03;;;;;;;26.52;23.85;;;;;;;;;;5094451;28;20443;-88
2024/01/12 04:50:47;;;;;;;25.17;22.80;;;;;;;;;;5091025;28;20039;-87
2024/01/12 04:53:31;;;;;;;27.38;24.77;;;;;;;;;;5096880;28;20031;-88
2024/01/12 04:56:16;;;;;;;25.75;23.30;;;;;;;;;;5085851;28;20580;-87
2024/01/12 04:59:00;;;;;;;26.58;23.90;;;;;;;;;;5088973;28;20122;-88
2024/01/12 05:01:44;;;;;;;32.05;25.95;;;;;;;;;;5088889;28;20066;-85
2024/01/12 05:04:27;;;;;;;26.13;23.88;;;;;;;;;;5087616;28;20039;-87
2024/01/12 05:07:11;;;;;;;26.27;24.02;;;;;;;;;;5103459;28;20101;-88
2024/01/12 05:09:55;;;;;;;30.15;24.25;;;;;;;;;;5084540;28;20157;-90
2024/01/12 05:12:39;;;;;;;29.40;25.45;;;;;;;;;;5083699;28;20094;-88
2024/01/12 05:15:23;;;;;;;26.10;23.88;;;;;;;;;;5090733;28;20042;-88
2024/01/12 05:18:07;;;;;;;29.80;26.15;;;;;;;;;;5085083;28;20090;-86
2024/01/12 05:20:51;;;;;;;25.50;23.23;;;;;;;;;;5090001;28;20042;-88
2024/01/12 05:23:35;;;;;;;27.75;24.27;;;;;;;;;;5087202;28;20026;-87
2024/01/12 05:26:19;;;;;;;26.85;24.35;;;;;;;;;;5087161;28;20221;-87
2024/01/12 05:29:04;;;;;;;26.67;24.13;;;;;;;;;;5091262;28;20038;-86
2024/01/12 05:31:48;;;;;;;27.30;25.23;;;;;;;;;;5093620;28;20030;-86
2024/01/12 05:34:32;;;;;;;27.77;25.30;;;;;;;;;;5089086;28;20035;-88
2024/01/12 05:37:16;;;;;;;27.73;25.35;;;;;;;;;;5089090;28;20070;-87
2024/01/12 05:40:00;;;;;;;29.80;27.20;;;;;;;;;;5092682;28;20120;-86
2024/01/12 05:42:44;;;;;;;30.58;27.98;;;;;;;;;;5087789;28;20034;-88
2024/01/12 05:45:28;;;;;;;34.47;31.10;;;;;;;;;;5084876;28;20035;-88
2024/01/12 05:48:12;;;;;;;40.45;34.65;;;;;;;;;;5088541;28;20130;-88
2024/01/12 05:50:56;;;;;;;34.17;31.27;;;;;;;;;;5085253;28;20034;-86
2024/01/12 05:53:40;;;;;;;34.58;31.65;;;;;;;;;;5100288;28;20546;-87
2024/01/12 05:56:24;;;;;;;31.98;29.42;;;;;;;;;;5086379;28;20536;-88
2024/01/12 05:59:08;;;;;;;35.95;32.80;;;;;;;;;;5088400;28;20035;-86
2024/01/12 06:01:52;;;;;;;34.75;32.13;;;;;;;;;;5083841;28;20094;-87
2024/01/12 06:04:36;;;;;;;35.40;32.40;;;;;;;;;;5099580;28;20043;-89
2024/01/12 06:07:20;;;;;;;34.67;31.80;;;;;;;;;;5100047;28;20046;-87
2024/01/12 06:10:05;;;;;;;36.67;33.60;;;;;;;;;;5084600;28;20050;-88
2024/01/12 06:12:55;;;;;;;33.55;30.77;;;;;;;;;;5083718;28;20114;-87
2024/01/12 06:15:39;;;;;;;34.60;31.92;;;;;;;;;;5080004;28;20122;-89
2024/01/12 06:18:23;;;;;;;34.55;31.95;;;;;;;;;;5085853;28;20102;-87
2024/01/12 06:21:06;;;;;;;60.05;36.20;;;;;;;;;;5103007;28;20037;-86
2024/01/12 06:23:50;;;;;;;31.75;29.60;;;;;;;;;;5088163;28;20035;-88
2024/01/12 06:26:34;;;;;;;33.78;30.52;;;;;;;;;;5085298;28;20042;-90
2024/01/12 06:29:18;;;;;;;38.05;34.70;;;;;;;;;;5087255;28;20089;-88
2024/01/12 06:32:05;;;;;;;38.20;35.25;;;;;;;;;;5085466;28;20054;-85
2024/01/12 06:34:49;;;;;;;40.20;37.03;;;;;;;;;;5081329;28;20074;-88
2024/01/12 06:37:33;;;;;;;43.25;39.47;;;;;;;;;;5085564;28;20039;-86
2024/01/12 06:40:17;;;;;;;35.45;32.83;;;;;;;;;;5089827;28;20058;-89
2024/01/12 06:43:01;;;;;;;40.80;38.25;;;;;;;;;;5095958;28;20074;-88
2024/01/12 06:45:45;;;;;;;42.13;38.88;;;;;;;;;;5095810;28;20091;-87
2024/01/12 06:48:29;;;;;;;34.70;32.35;;;;;;;;;;5093718;28;20149;-89
2024/01/12 06:51:20;;;;;;;42.30;39.25;;;;;;;;;;5095705;28;20172;-88
2024/01/12 06:54:04;;;;;;;39.20;36.95;;;;;;;;;;5096911;28;20074;-87
2024/01/12 06:56:51;;;;;;;36.85;34.40;;;;;;;;;;5110875;28;20027;-88
2024/01/12 06:59:35;;;;;;;41.92;38.95;;;;;;;;;;5095539;28;20042;-89
2024/01/12 07:02:19;;;;;;;38.08;35.38;;;;;;;;;;5095443;28;20489;-90
2024/01/12 07:05:06;;;;;;;35.08;32.30;;;;;;;;;;5094425;28;20083;-87
2024/01/12 07:07:50;;;;;;;35.25;33.03;;;;;;;;;;5095572;28;20443;-86
2024/01/12 07:10:34;;;;;;;32.35;30.35;;;;;;;;;;5094508;28;20382;-88
2024/01/12 07:13:18;;;;;;;31.58;29.50;;;;;;;;;;5095388;28;20109;-87
2024/01/12 07:16:02;;;;;;;35.10;32.78;;;;;;;;;;5094946;28;20039;-88
2024/01/12 07:18:46;;;;;;;35.63;33.13;;;;;;;;;;5110076;28;20084;-88
2024/01/12 07:21:30;;;;;;;32.50;30.20;;;;;;;;;;5094495;28;20042;-87
2024/01/12 07:24:14;;;;;;;33.42;31.08;;;;;;;;;;5094587;28;20057;-88
2024/01/12 07:26:58;;;;;;;33.65;30.45;;;;;;;;;;5096570;28;20081;-87
2024/01/12 07:29:42;;;;;;;32.28;29.58;;;;;;;;;;5095715;28;20101;-87
2024/01/12 07:32:26;;;;;;;35.20;32.25;;;;;;;;;;5095726;28;20034;-88
2024/01/12 07:35:11;;;;;;;33.20;30.63;;;;;;;;;;5095601;28;20038;-89
2024/01/12 07:37:55;;;;;;;31.60;29.38;;;;;;;;;;5092467;28;20065;-87
2024/01/12 07:40:39;;;;;;;31.23;29.00;;;;;;;;;;5110673;28;20082;-88
2024/01/12 07:43:23;;;;;;;33.03;30.13;;;;;;;;;;5094568;28;20043;-88
2024/01/12 07:46:07;;;;;;;32.28;29.98;;;;;;;;;;5095408;28;20047;-89
2024/01/12 07:48:51;;;;;;;31.02;29.20;;;;;;;;;;5094575;28;20043;-88
2024/01/12 07:51:38;;;;;;;35.47;32.90;;;;;;;;;;5095593;28;20027;-87
2024/01/12 07:54:22;;;;;;;34.33;32.20;;;;;;;;;;5114831;28;20085;-88
2024/01/12 07:57:06;;;;;;;34.78;32.97;;;;;;;;;;5098418;28;20043;-89
2024/01/12 07:59:50;;;;;;;38.22;35.75;;;;;;;;;;5114974;28;20050;-88
2024/01/12 08:02:34;;;;;;;42.92;40.70;;;;;;;;;;5099352;28;20038;-89
2024/01/12 08:05:19;;;;;;;43.15;40.20;;;;;;;;;;5109905;28;20085;-87
2024/01/12 08:08:03;;;;;;;45.60;43.00;;;;;;;;;;5112751;28;20042;-86
2024/01/12 08:10:47;;;;;;;44.97;42.13;;;;;;;;;;5100021;28;20081;-90
2024/01/12 08:13:30;;;;;;;46.80;44.10;;;;;;;;;;5099941;28;20381;-88
2024/01/12 08:16:15;;;;;;;46.20;43.40;;;;;;;;;;5100014;28;20031;-89
2024/01/12 08:18:58;;;;;;;45.40;42.17;;;;;;;;;;5099531;28;20072;-87
2024/01/12 08:21:42;;;;;;;45.10;41.85;;;;;;;;;;5100000;28;20127;-89
2024/01/12 08:24:26;;;;;;;44.03;41.25;;;;;;;;;;5099000;28;20035;-86
2024/01/12 08:27:10;;;;;;;38.95;36.45;;;;;;;;;;5113504;28;20038;-88
2024/01/12 08:29:55;;;;;;;46.05;43.28;;;;;;;;;;5099231;28;20038;-89
2024/01/12 08:32:39;;;;;;;45.55;42.55;;;;;;;;;;5098635;28;20043;-88
2024/01/12 08:35:23;;;;;;;45.97;43.05;;;;;;;;;;5112812;28;20559;-89
2024/01/12 08:38:07;;;;;;;45.78;42.90;;;;;;;;;;5097235;28;20145;-88
2024/01/12 08:40:51;;;;;;;46.00;43.13;;;;;;;;;;5089443;28;20114;-87
2024/01/12 08:43:35;;;;;;;45.00;42.40;;;;;;;;;;5105373;28;20058;-89
2024/01/12 08:46:19;;;;;;;43.20;40.70;;;;;;;;;;5097542;28;20074;-89
2024/01/12 08:49:03;;;;;;;43.28;40.95;;;;;;;;;;5079798;28;20063;-89
2024/01/12 08:51:48;;;;;;;42.53;40.10;;;;;;;;;;5105753;28;20078;-90
2024/01/12 08:54:36;;;;;;;40.67;38.17;;;;;;;;;;5080931;28;20044;-88
2024/01/12 08:57:20;;;;;;;41.25;38.88;;;;;;;;;;5087355;28;20512;-90
2024/01/12 09:00:05;;;;;;;37.72;35.40;;;;;;;;;;5089404;28;20122;-87
2024/01/12 09:02:49;;;;;;;38.13;35.70;;;;;;;;;;5086148;28;20043;-89
2024/01/12 09:05:40;;;;;;;43.20;40.75;;;;;;;;;;5081631;28;20039;-87
2024/01/12 09:08:25;;;;;;;44.08;41.35;;;;;;;;;;5087743;28;20108;-89
2024/01/12 09:11:11;;;;;;;42.80;40.00;;;;;;;;;;5091317;28;20074;-86
2024/01/12 09:13:55;;;;;;;44.53;41.65;;;;;;;;;;5086328;28;20038;-88
2024/01/12 09:16:39;;;;;;;42.92;40.35;;;;;;;;;;5083564;28;20093;-87
2024/01/12 09:19:23;;;;;;;41.80;38.92;;;;;;;;;;5106735;28;20540;-89
2024/01/12 09:22:07;;;;;;;39.38;36.80;;;;;;;;;;5088084;28;20085;-87
2024/01/12 09:24:50;;;;;;;38.63;36.15;;;;;;;;;;5092293;28;20485;-90
2024/01/12 09:27:35;;;;;;;37.00;34.42;;;;;;;;;;5082694;28;20058;-87
2024/01/12 09:30:19;;;;;;;36.30;33.80;;;;;;;;;;5099393;28;20086;-87
2024/01/12 09:33:03;;;;;;;32.78;30.48;;;;;;;;;;5085100;28;20030;-89
2024/01/12 09:35:47;;;;;;;34.70;32.20;;;;;;;;;;5099734;28;20034;-87
2024/01/12 09:38:31;;;;;;;34.15;31.75;;;;;;;;;;5105669;28;20074;-87
2024/01/12 09:41:20;;;;;;;34.72;32.33;;;;;;;;;;5092286;28;20077;-88
2024/01/12 09:44:06;;;;;;;34.08;32.08;;;;;;;;;;5085273;28;20133;-87
2024/01/12 09:46:57;;;;;;;41.58;39.15;;;;;;;;;;5085442;28;20078;-88
2024/01/12 09:49:41;;;;;;;39.10;36.90;;;;;;;;;;5092789;28;20039;-86
2024/01/12 09:52:25;;;;;;;39.97;37.88;;;;;;;;;;5106953;28;20095;-88
2024/01/12 09:55:09;;;;;;;41.20;39.10;;;;;;;;;;5091249;28;20050;-88
2024/01/12 09:57:54;;;;;;;41.70;39.60;;;;;;;;;;5089847;28;20091;-89
2024/01/12 10:00:40;;;;;;;47.35;44.65;;;;;;;;;;5091775;28;20513;-90
2024/01/12 10:03:25;;;;;;;44.63;42.05;;;;;;;;;;5114991;28;20050;-92
2024/01/12 10:06:09;;;;;;;41.13;38.90;;;;;;;;;;5099865;28;20042;-90
2024/01/12 10:08:53;;;;;;;42.30;39.47;;;;;;;;;;5098849;28;20035;-90
2024/01/12 10:11:37;;;;;;;39.25;36.92;;;;;;;;;;5100036;28;20037;-91
2024/01/12 10:14:21;;;;;;;34.65;32.70;;;;;;;;;;5094663;28;20038;-89
2024/01/12 10:17:06;;;;;;;34.85;32.75;;;;;;;;;;5082149;28;20042;-91
2024/01/12 10:19:50;;;;;;;32.78;30.67;;;;;;;;;;5081817;28;20075;-87
2024/01/12 10:22:37;;;;;;;33.38;30.92;;;;;;;;;;5079988;28;20088;-88
2024/01/12 10:25:21;;;;;;;30.30;28.05;;;;;;;;;;5086748;28;20100;-88
2024/01/12 10:28:05;;;;;;;34.80;32.40;;;;;;;;;;5084905;28;20034;-86
2024/01/12 10:30:48;;;;;;;34.95;32.58;;;;;;;;;;5087195;28;20030;-89
2024/01/12 10:33:35;;;;;;;32.53;30.35;;;;;;;;;;5085090;28;20078;-88
2024/01/12 10:36:23;;;;;;;34.15;31.67;;;;;;;;;;5087906;28;20540;-87
2024/01/12 10:39:09;;;;;;;39.17;35.55;;;;;;;;;;5084432;28;20540;-89
2024/01/12 10:41:56;;;;;;;35.80;32.55;;;;;;;;;;5096007;28;20039;-89
2024/01/12 10:44:40;;;;;;;34.72;31.15;;;;;;;;;;5095797;28;20046;-89
2024/01/12 10:47:32;;;;;;;34.65;31.75;;;;;;;;;;5095603;28;20054;-89
2024/01/12 10:50:17;;;;;;;34.75;32.15;;;;;;;;;;5111959;28;20548;-89
2024/01/12 10:53:25;;;;;;;38.90;35.65;;;;;;;;;;5095663;28;20030;-88
2024/01/12 10:56:09;;;;;;;37.25;33.88;;;;;;;;;;5095872;28;20547;-87
2024/01/12 10:58:53;;;;;;;35.53;32.40;;;;;;;;;;5096634;28;20035;-88
2024/01/12 11:01:38;;;;;;;36.47;33.38;;;;;;;;;;5096006;28;20038;-88
2024/01/12 11:04:23;;;;;;;39.33;35.72;;;;;;;;;;5096473;28;20030;-89
2024/01/12 11:07:06;;;;;;;35.20;32.22;;;;;;;;;;5111839;28;20123;-90
2024/01/12 11:09:51;;;;;;;34.58;31.65;;;;;;;;;;5110166;28;20039;-89
2024/01/12 11:12:36;;;;;;;33.60;31.00;;;;;;;;;;5095331;28;20381;-89
2024/01/12 11:15:20;;;;;;;35.72;32.10;;;;;;;;;;5096357;28;20092;-89
2024/01/12 11:18:05;;;;;;;34.90;31.90;;;;;;;;;;5095900;28;20073;-89
2024/01/12 11:20:59;;;;;;;31.13;28.58;;;;;;;;;;5095148;28;20041;-90
2024/01/12 11:23:43;;;;;;;34.58;31.60;;;;;;;;;;5095212;28;20499;-87
2024/01/12 11:26:28;;;;;;;37.10;33.83;;;;;;;;;;5097171;28;20034;-88
2024/01/12 11:29:14;;;;;;;33.45;30.45;;;;;;;;;;5098741;28;20177;-89
2024/01/12 11:32:04;;;;;;;33.50;30.45;;;;;;;;;;5099958;28;20035;-87
2024/01/12 11:34:48;;;;;;;31.65;28.67;;;;;;;;;;5115694;28;20062;-87
2024/01/12 11:37:32;;;;;;;31.55;28.42;;;;;;;;;;5097901;28;20477;-88
2024/01/12 11:40:16;;;;;;;32.20;28.90;;;;;;;;;;5104452;27;20050;-87
2024/01/12 11:43:00;;;;;;;32.50;29.52;;;;;;;;;;5120420;27;20042;-88
2024/01/12 11:45:44;;;;;;;32.38;29.10;;;;;;;;;;5136117;27;20244;-89
2024/01/12 11:48:28;;;;;;;37.92;31.60;;;;;;;;;;5120159;27;20080;-87
2024/01/12 11:51:19;;;;;;;35.85;32.58;;;;;;;;;;5136088;27;20482;-88
2024/01/12 11:54:03;;;;;;;32.83;29.70;;;;;;;;;;5120278;27;20560;-87
2024/01/12 11:56:47;;;;;;;38.05;33.97;;;;;;;;;;5120052;27;20042;-87
2024/01/12 11:59:31;;;;;;;35.65;31.92;;;;;;;;;;5120091;27;20042;-90
2024/01/12 12:02:16;;;;;;;35.70;32.20;;;;;;;;;;5120320;27;20061;-87
2024/01/12 12:05:00;;;;;;;37.30;33.97;;;;;;;;;;5119973;27;20084;-86
2024/01/12 12:07:44;;;;;;;36.78;33.45;;;;;;;;;;5120082;27;20062;-87
2024/01/12 12:10:28;;;;;;;37.00;33.53;;;;;;;;;;5119794;27;20099;-88
2024/01/12 12:13:13;;;;;;;38.45;34.90;;;;;;;;;;5119857;27;20046;-87
2024/01/12 12:15:57;;;;;;;38.33;34.72;;;;;;;;;;5119689;27;20115;-88
2024/01/12 12:18:42;;;;;;;35.03;31.80;;;;;;;;;;5119451;27;20057;-86
2024/01/12 12:21:27;;;;;;;35.42;32.15;;;;;;;;;;5114923;27;20038;-87
2024/01/12 12:24:11;;;;;;;44.40;39.80;;;;;;;;;;5119458;27;20057;-88
2024/01/12 12:26:56;;;;;;;39.83;35.70;;;;;;;;;;5118353;27;20110;-89
2024/01/12 12:29:40;;;;;;;38.00;34.05;;;;;;;;;;5119512;27;20050;-87
2024/01/12 12:32:26;;;;;;;39.67;35.58;;;;;;;;;;5116503;27;20035;-92
2024/01/12 12:35:13;;;;;;;36.13;32.58;;;;;;;;;;5119549;27;20081;-85
2024/01/12 12:38:00;;;;;;;35.72;32.10;;;;;;;;;;5133592;27;20042;-89
2024/01/12 12:40:46;;;;;;;35.08;31.75;;;;;;;;;;5119093;27;20058;-87
2024/01/12 12:43:31;;;;;;;35.85;32.42;;;;;;;;;;5118867;27;20087;-89
2024/01/12 12:46:15;;;;;;;36.88;33.85;;;;;;;;;;5119281;27;20491;-88
2024/01/12 12:48:59;;;;;;;36.97;33.58;;;;;;;;;;5133603;27;20042;-88
2024/01/12 12:51:44;;;;;;;37.78;34.40;;;;;;;;;;5118948;27;20062;-88
2024/01/12 12:54:29;;;;;;;39.83;36.58;;;;;;;;;;5118972;27;20042;-88
2024/01/12 12:57:14;;;;;;;40.83;37.33;;;;;;;;;;5118776;27;20081;-90
2024/01/12 12:59:57;;;;;;;38.85;35.22;;;;;;;;;;5118920;27;20053;-87
2024/01/12 13:02:42;;;;;;;42.08;38.40;;;;;;;;;;5119096;27;20120;-86
2024/01/12 13:05:25;;;;;;;44.97;37.72;;;;;;;;;;5118972;27;20042;-88
2024/01/12 13:08:09;;;;;;;40.90;37.15;;;;;;;;;;5118518;27;20511;-88
2024/01/12 13:10:54;;;;;;;41.50;37.50;;;;;;;;;;5134024;27;20030;-87
2024/01/12 13:13:38;;;;;;;43.60;39.45;;;;;;;;;;5118918;27;20030;-85
2024/01/12 13:16:22;;;;;;;45.40;41.30;;;;;;;;;;5121590;27;20021;-87
2024/01/12 13:19:07;;;;;;;43.42;39.28;;;;;;;;;;5117547;27;20041;-87
2024/01/12 13:21:52;;;;;;;46.95;42.90;;;;;;;;;;5117976;27;20043;-90
2024/01/12 13:24:36;;;;;;;48.15;43.80;;;;;;;;;;5118372;27;20034;-88
2024/01/12 13:27:21;;;;;;;46.30;41.63;;;;;;;;;;5118461;27;20395;-86
2024/01/12 13:30:06;;;;;;;44.53;40.45;;;;;;;;;;5119318;27;20100;-88
2024/01/12 13:32:50;;;;;;;43.47;39.70;;;;;;;;;;5118269;27;20061;-88
2024/01/12 13:35:34;;;;;;;46.05;41.90;;;;;;;;;;5117968;27;20505;-87
2024/01/12 13:38:18;;;;;;;46.30;41.50;;;;;;;;;;5117807;27;20038;-89
2024/01/12 13:41:02;;;;;;;45.13;41.20;;;;;;;;;;5116776;27;20066;-86
2024/01/12 13:43:45;;;;;;;43.58;39.38;;;;;;;;;;5117748;27;20038;-86
2024/01/12 13:46:30;;;;;;;44.88;41.20;;;;;;;;;;5117520;27;20128;-88
2024/01/12 13:49:13;;;;;;;46.38;42.63;;;;;;;;;;5116972;27;20049;-86
2024/01/12 13:51:57;;;;;;;41.95;38.28;;;;;;;;;;5117515;27;20042;-88
2024/01/12 13:54:41;;;;;;;43.63;39.92;;;;;;;;;;5116192;27;20115;-83
2024/01/12 13:57:25;;;;;;;40.33;37.25;;;;;;;;;;5115134;27;20031;-87
2024/01/12 14:00:12;;;;;;;44.63;40.63;;;;;;;;;;5116028;27;20042;-87
2024/01/12 14:02:58;;;;;;;43.67;40.15;;;;;;;;;;5117108;27;20534;-89
2024/01/12 14:05:42;;;;;;;45.67;41.25;;;;;;;;;;5117188;27;20058;-88
2024/01/12 14:08:26;;;;;;;42.38;39.10;;;;;;;;;;5132137;27;20365;-90
2024/01/12 14:11:13;;;;;;;36.67;33.47;;;;;;;;;;5122586;27;20030;-88
2024/01/12 14:14:00;;;;;;;39.35;36.22;;;;;;;;;;5121588;27;20095;-89
2024/01/12 14:16:44;;;;;;;42.90;39.60;;;;;;;;;;5121799;27;20030;-90
2024/01/12 14:26:50;;;;;;;42.30;39.47;;;;;;;;;;5113401;28;20093;-91
2024/01/12 14:29:45;;;;;;;44.90;41.08;;;;;;;;;;5116417;27;20038;-91
2024/01/12 14:32:33;;;;;;;45.65;42.53;;;;;;;;;;5120489;27;20038;-91
2024/01/12 14:35:25;;;;;;;47.20;43.22;;;;;;;;;;5135599;27;20022;-90
2024/01/12 14:38:12;;;;;;;44.30;40.92;;;;;;;;;;5120377;27;20404;-90
2024/01/12 14:44:37;;;;;;;41.05;37.92;;;;;;;;;;5116524;28;20038;-89
2024/01/12 14:47:23;;;;;;;41.33;38.33;;;;;;;;;;5102580;28;20038;-90
2024/01/12 15:01:31;;;;;;;37.53;34.80;;;;;;;;;;5120248;28;20480;-90
2024/01/12 15:04:21;;;;;;;38.30;35.97;;;;;;;;;;5106481;28;20062;-89
2024/01/12 15:07:09;;;;;;;40.47;37.70;;;;;;;;;;5066743;28;20047;-89
2024/01/12 15:13:36;;;;;;;41.45;38.78;;;;;;;;;;5080157;28;20107;-90
2024/01/12 15:16:21;;;;;;;41.95;39.03;;;;;;;;;;5064552;28;20046;-90
2024/01/12 15:19:07;;;;;;;38.88;36.03;;;;;;;;;;5065556;28;20051;-90
2024/01/12 15:22:02;;;;;;;;;;;;;;;;;;;;;
2024/01/12 15:28:31;;;;;;;43.08;40.08;;;;;;;;;;5080314;28;20086;-89
2024/01/12 15:34:45;;;;;;;40.00;37.28;;;;;;;;;;5079543;28;20134;-89
2024/01/12 15:45:27;;;;;;;;;;;;;;;;;;;;;
2024/01/12 16:57:19;;;;;;;38.67;34.83;;;;;;;;;;5117561;28;20064;-90
2024/01/12 17:18:11;;;;;;;37.03;33.53;;;;;;;;;;5077050;28;20146;-89
2024/01/12 17:21:15;;;;;;;;;;;;;;;;;;;;;
2024/01/12 17:23:59;;;;;;;36.90;32.88;;;;;;;;;;5076186;28;20552;-90
2024/01/12 17:26:48;;;;;;;37.15;33.25;;;;;;;;;;5075109;28;20166;-90
2024/01/12 17:29:34;;;;;;;38.75;34.65;;;;;;;;;;5079203;28;20039;-90
2024/01/12 17:32:29;;;;;;;38.28;34.28;;;;;;;;;;5075659;28;20043;-90
2024/01/12 17:35:16;;;;;;;37.10;33.47;;;;;;;;;;5075916;28;20036;-90
2024/01/12 17:38:03;;;;;;;37.83;33.83;;;;;;;;;;5074813;28;20047;-89
2024/01/12 17:40:47;;;;;;;47.72;38.58;;;;;;;;;;5074837;28;20046;-89
2024/01/12 17:43:32;;;;;;;44.35;38.03;;;;;;;;;;5074775;28;20410;-89
2024/01/12 17:50:03;;;;;;;;;;;;;;;;;;5096930;28;20039;-90
2024/01/12 17:56:19;;;;;;;41.10;33.97;;;;;;;;;;5076107;28;20038;-90
2024/01/12 17:59:04;;;;;;;69.88;48.75;;;;;;;;;;5075180;28;20044;-90
2024/01/12 18:01:51;;;;;;;39.55;35.38;;;;;;;;;;5074264;28;20170;-90
2024/01/12 18:04:36;;;;;;;48.88;38.65;;;;;;;;;;5074408;28;20043;-90
2024/01/12 18:11:13;;;;;;;49.38;37.13;;;;;;;;;;5096258;28;20062;-90
2024/01/12 18:13:57;;;;;;;43.78;35.90;;;;;;;;;;5094833;28;20043;-87
2024/01/12 18:16:41;;;;;;;424.15;229.88;;;;;;;;;;5092784;28;20628;-90
2024/01/12 18:19:34;;;;;;;310.88;148.10;;;;;;;;;;5087711;28;20027;-90
2024/01/12 18:25:59;;;;;;;54.35;40.38;;;;;;;;;;5101985;28;20040;-90
2024/01/12 18:32:44;;;;;;;54.22;40.70;;;;;;;;;;5099073;28;20035;-90